Time;durP1;ratioP1;P1;durP2;ratioP2;P2;SDS_P1;SDS_P2;PMS_P1;PMS_P2;Temp;Humidity;BMP_temperature;BMP_pressure;BME280_temperature;BME280_humidity;BME280_pressure;Samples;Min_cycle;Max_cycle;Signal;HPM_P1;HPM_P2
2022/11/23 00:01:46;;;;;;;6.28;3.08;;;;;;;;;;8350507;28;20059;-62
2022/11/23 00:05:46;;;;;;;6.03;1.80;;;;;;;;;;8356407;28;20052;-62
2022/11/23 00:09:46;;;;;;;5.07;1.80;;;;;;;;;;8355067;28;20036;-63
2022/11/23 00:13:46;;;;;;;6.35;1.80;;;;;;;;;;8357275;28;20032;-63
2022/11/23 00:17:47;;;;;;;7.07;1.60;;;;;;;;;;8353904;28;20045;-62
2022/11/23 00:21:47;;;;;;;10.48;2.15;;;;;;;;;;8354416;28;20030;-62
2022/11/23 00:25:47;;;;;;;3.95;1.55;;;;;;;;;;8354134;28;20042;-63
2022/11/23 00:29:48;;;;;;;9.23;2.40;;;;;;;;;;8352636;28;20035;-63
2022/11/23 00:33:49;;;;;;;12.85;2.22;;;;;;;;;;8352857;28;20361;-62
2022/11/23 00:37:49;;;;;;;8.27;1.75;;;;;;;;;;8359352;28;20020;-63
2022/11/23 00:41:50;;;;;;;8.18;1.70;;;;;;;;;;8359321;28;20587;-62
2022/11/23 00:45:50;;;;;;;5.75;1.77;;;;;;;;;;8359819;28;20033;-62
2022/11/23 00:49:50;;;;;;;6.50;1.70;;;;;;;;;;8360042;28;20028;-62
2022/11/23 00:53:50;;;;;;;5.38;1.67;;;;;;;;;;8360048;28;20028;-62
2022/11/23 00:57:51;;;;;;;6.82;1.67;;;;;;;;;;8359821;28;20400;-62
2022/11/23 01:01:51;;;;;;;13.27;2.10;;;;;;;;;;8339370;28;20029;-62
2022/11/23 01:05:51;;;;;;;8.35;1.90;;;;;;;;;;8356479;28;20313;-62
2022/11/23 01:09:51;;;;;;;6.50;2.10;;;;;;;;;;8358285;28;20033;-63
2022/11/23 01:13:51;;;;;;;6.30;1.90;;;;;;;;;;8360990;28;20016;-62
2022/11/23 01:17:52;;;;;;;8.63;1.97;;;;;;;;;;8357571;28;20172;-62
2022/11/23 01:21:52;;;;;;;10.60;1.80;;;;;;;;;;8358415;28;20311;-62
2022/11/23 01:25:52;;;;;;;8.00;2.38;;;;;;;;;;8358692;28;20274;-62
2022/11/23 01:29:52;;;;;;;8.17;1.90;;;;;;;;;;8352516;28;20024;-62
2022/11/23 01:34:00;;;;;;;6.55;1.77;;;;;;;;;;8346292;28;20364;-62
2022/11/23 01:38:00;;;;;;;7.85;1.83;;;;;;;;;;8354440;28;20024;-62
2022/11/23 01:42:05;;;;;;;5.18;1.65;;;;;;;;;;8358273;28;20020;-62
2022/11/23 01:46:05;;;;;;;7.47;2.05;;;;;;;;;;8356054;28;20456;-62
2022/11/23 01:50:06;;;;;;;8.18;1.70;;;;;;;;;;8359429;28;20024;-62
2022/11/23 01:54:10;;;;;;;6.97;1.73;;;;;;;;;;8360373;28;20024;-62
2022/11/23 01:58:12;;;;;;;6.30;1.80;;;;;;;;;;8356833;28;20055;-62
2022/11/23 02:02:14;;;;;;;6.07;1.35;;;;;;;;;;8357754;28;20037;-62
2022/11/23 02:06:16;;;;;;;8.55;1.85;;;;;;;;;;8336774;28;20036;-63
2022/11/23 02:10:16;;;;;;;11.30;3.17;;;;;;;;;;8307354;28;20047;-63
2022/11/23 02:14:17;;;;;;;11.23;2.00;;;;;;;;;;8314579;28;20069;-62
2022/11/23 02:18:19;;;;;;;6.88;1.75;;;;;;;;;;8340654;28;20036;-62
2022/11/23 02:22:40;;;;;;;11.32;1.80;;;;;;;;;;8308414;28;20802;-62
2022/11/23 02:26:40;;;;;;;9.07;1.73;;;;;;;;;;8325772;28;20047;-62
2022/11/23 02:30:41;;;;;;;8.20;1.70;;;;;;;;;;8353384;28;20680;-62
2022/11/23 02:34:41;;;;;;;9.30;2.10;;;;;;;;;;8355958;28;20194;-62
2022/11/23 02:38:42;;;;;;;7.82;1.90;;;;;;;;;;8357057;28;20056;-62
2022/11/23 02:42:43;;;;;;;3.13;1.30;;;;;;;;;;8357592;28;20032;-63
2022/11/23 02:46:44;;;;;;;6.85;1.67;;;;;;;;;;8357535;28;20278;-62
2022/11/23 02:50:44;;;;;;;5.05;1.50;;;;;;;;;;8356988;28;20139;-62
2022/11/23 02:54:45;;;;;;;7.25;1.88;;;;;;;;;;8355655;28;20666;-63
2022/11/23 02:58:45;;;;;;;6.30;1.55;;;;;;;;;;8359449;28;20053;-63
2022/11/23 03:02:45;;;;;;;8.25;1.65;;;;;;;;;;8356619;28;20668;-63
2022/11/23 03:06:45;;;;;;;8.85;1.88;;;;;;;;;;8357532;28;20090;-62
2022/11/23 03:10:46;;;;;;;6.80;1.75;;;;;;;;;;8359332;28;20097;-63
2022/11/23 03:14:46;;;;;;;7.47;1.90;;;;;;;;;;8358595;28;20063;-63
2022/11/23 03:18:46;;;;;;;5.72;1.50;;;;;;;;;;8350770;28;20279;-63
2022/11/23 03:22:46;;;;;;;11.83;1.87;;;;;;;;;;8351983;28;20078;-64
2022/11/23 03:26:47;;;;;;;10.35;1.90;;;;;;;;;;8351791;28;20794;-62
2022/11/23 03:30:47;;;;;;;6.82;1.60;;;;;;;;;;8356560;28;20036;-62
2022/11/23 03:34:47;;;;;;;7.53;2.00;;;;;;;;;;8358630;28;20124;-63
2022/11/23 03:38:47;;;;;;;9.93;1.70;;;;;;;;;;8358956;28;20048;-62
2022/11/23 03:42:47;;;;;;;11.82;1.80;;;;;;;;;;8351758;28;20024;-63
2022/11/23 03:46:49;;;;;;;4.90;1.90;;;;;;;;;;8341881;28;20062;-62
2022/11/23 03:50:49;;;;;;;12.68;2.00;;;;;;;;;;8323999;28;20703;-62
2022/11/23 03:54:49;;;;;;;10.88;2.45;;;;;;;;;;8323614;28;20025;-62
2022/11/23 03:58:50;;;;;;;12.63;2.05;;;;;;;;;;8323646;28;20044;-62
2022/11/23 04:02:50;;;;;;;8.70;1.95;;;;;;;;;;8324675;28;20043;-63
2022/11/23 04:06:51;;;;;;;8.53;1.90;;;;;;;;;;8324252;28;20021;-63
2022/11/23 04:10:55;;;;;;;6.93;1.65;;;;;;;;;;8325401;28;20283;-63
2022/11/23 04:14:55;;;;;;;11.77;1.87;;;;;;;;;;8327902;28;20028;-63
2022/11/23 04:18:55;;;;;;;8.38;1.65;;;;;;;;;;8323461;28;20041;-62
2022/11/23 04:22:55;;;;;;;9.25;2.13;;;;;;;;;;8326126;28;20063;-63
2022/11/23 04:26:55;;;;;;;11.10;2.10;;;;;;;;;;8322579;28;20544;-63
2022/11/23 04:30:57;;;;;;;10.68;2.00;;;;;;;;;;8330803;28;20044;-63
2022/11/23 04:34:58;;;;;;;9.35;2.03;;;;;;;;;;8355683;28;20041;-62
2022/11/23 04:38:59;;;;;;;9.40;1.90;;;;;;;;;;8356375;28;20020;-62
2022/11/23 04:42:59;;;;;;;11.63;1.95;;;;;;;;;;8353951;28;20094;-63
2022/11/23 04:46:59;;;;;;;10.67;1.93;;;;;;;;;;8353354;28;20393;-62
2022/11/23 04:50:59;;;;;;;7.20;1.85;;;;;;;;;;8354333;28;20815;-63
2022/11/23 04:55:00;;;;;;;8.90;1.75;;;;;;;;;;8357289;28;20033;-63
2022/11/23 04:59:00;;;;;;;6.20;1.80;;;;;;;;;;8354522;28;20028;-62
2022/11/23 05:03:00;;;;;;;7.20;1.90;;;;;;;;;;8319730;28;20152;-62
2022/11/23 05:07:00;;;;;;;8.75;2.10;;;;;;;;;;8304218;28;20034;-62
2022/11/23 05:11:01;;;;;;;6.53;1.90;;;;;;;;;;8302681;28;20021;-63
2022/11/23 05:15:02;;;;;;;10.15;1.95;;;;;;;;;;8304504;28;20029;-62
2022/11/23 05:19:02;;;;;;;11.18;2.60;;;;;;;;;;8334296;28;20551;-62
2022/11/23 05:23:03;;;;;;;6.60;2.10;;;;;;;;;;8341750;28;20032;-63
2022/11/23 05:27:03;;;;;;;6.00;2.10;;;;;;;;;;8342791;28;20033;-63
2022/11/23 05:31:03;;;;;;;9.83;2.07;;;;;;;;;;8341324;28;20037;-62
2022/11/23 05:35:05;;;;;;;8.02;1.80;;;;;;;;;;8341969;28;20291;-63
2022/11/23 05:39:05;;;;;;;6.97;1.70;;;;;;;;;;8343185;28;20021;-62
2022/11/23 05:43:05;;;;;;;10.13;1.90;;;;;;;;;;8339897;28;20101;-63
2022/11/23 05:47:05;;;;;;;7.45;1.63;;;;;;;;;;8342560;28;20972;-63
2022/11/23 05:51:05;;;;;;;5.50;1.80;;;;;;;;;;8341244;28;20020;-63
2022/11/23 05:55:06;;;;;;;10.00;1.95;;;;;;;;;;8338239;28;20281;-62
2022/11/23 05:59:06;;;;;;;9.20;1.60;;;;;;;;;;8340356;28;20035;-64
2022/11/23 06:03:07;;;;;;;13.68;1.95;;;;;;;;;;8339892;28;20036;-62
2022/11/23 06:07:07;;;;;;;6.82;1.77;;;;;;;;;;8341596;28;20902;-62
2022/11/23 06:11:07;;;;;;;8.53;1.80;;;;;;;;;;8342655;28;20551;-62
2022/11/23 06:15:08;;;;;;;6.30;1.70;;;;;;;;;;8341558;28;20791;-64
2022/11/23 06:19:08;;;;;;;9.45;1.90;;;;;;;;;;8342067;28;20048;-62
2022/11/23 06:23:08;;;;;;;7.87;1.80;;;;;;;;;;8342003;28;20575;-62
2022/11/23 06:27:09;;;;;;;5.38;1.50;;;;;;;;;;8340727;28;20283;-63
2022/11/23 06:31:09;;;;;;;8.98;2.03;;;;;;;;;;8340253;28;20048;-62
2022/11/23 06:35:09;;;;;;;7.70;2.00;;;;;;;;;;8340244;28;20378;-63
2022/11/23 06:39:09;;;;;;;6.43;2.13;;;;;;;;;;8339712;28;20145;-62
2022/11/23 06:43:09;;;;;;;9.55;1.60;;;;;;;;;;8339361;28;20561;-62
2022/11/23 06:47:10;;;;;;;8.65;1.80;;;;;;;;;;8341283;28;20494;-63
2022/11/23 06:51:10;;;;;;;9.88;2.03;;;;;;;;;;8340738;28;20032;-62
2022/11/23 06:55:10;;;;;;;6.88;1.48;;;;;;;;;;8340077;28;20032;-63
2022/11/23 06:59:10;;;;;;;5.88;1.73;;;;;;;;;;8339765;28;20293;-63
2022/11/23 07:03:23;;;;;;;8.93;2.38;;;;;;;;;;8340724;28;20393;-62
2022/11/23 07:07:23;;;;;;;8.05;1.85;;;;;;;;;;8324016;28;20040;-62
2022/11/23 07:11:23;;;;;;;11.10;2.15;;;;;;;;;;8338767;28;20067;-62
2022/11/23 07:15:24;;;;;;;4.43;1.70;;;;;;;;;;8337604;28;20045;-62
2022/11/23 07:19:24;;;;;;;9.60;1.73;;;;;;;;;;8339496;28;20374;-62
2022/11/23 07:23:24;;;;;;;11.30;1.77;;;;;;;;;;8341795;28;20021;-68
2022/11/23 07:27:24;;;;;;;9.13;1.98;;;;;;;;;;8338422;28;20029;-63
2022/11/23 07:31:25;;;;;;;11.20;1.73;;;;;;;;;;8339943;28;20647;-63
2022/11/23 07:35:25;;;;;;;7.65;1.77;;;;;;;;;;8339437;28;20025;-62
2022/11/23 07:39:25;;;;;;;10.77;1.55;;;;;;;;;;8339650;28;20033;-62
2022/11/23 07:43:25;;;;;;;6.45;1.70;;;;;;;;;;8337494;28;20031;-62
2022/11/23 07:47:26;;;;;;;7.60;1.63;;;;;;;;;;8339580;28;21086;-62
2022/11/23 07:51:26;;;;;;;5.32;1.52;;;;;;;;;;8340009;28;20024;-63
2022/11/23 07:55:27;;;;;;;11.07;1.55;;;;;;;;;;8341088;28;20143;-62
2022/11/23 07:59:28;;;;;;;7.60;1.80;;;;;;;;;;8338446;28;20063;-63
2022/11/23 08:03:28;;;;;;;10.80;1.80;;;;;;;;;;8337246;28;20037;-62
2022/11/23 08:07:28;;;;;;;9.70;1.90;;;;;;;;;;8339127;28;20120;-62
2022/11/23 08:11:28;;;;;;;8.82;2.15;;;;;;;;;;8338905;28;20036;-61
2022/11/23 08:15:29;;;;;;;5.60;1.58;;;;;;;;;;8337769;28;20728;-62
2022/11/23 08:19:29;;;;;;;9.77;1.63;;;;;;;;;;8338480;28;20397;-62
2022/11/23 08:23:29;;;;;;;5.28;1.38;;;;;;;;;;8339327;28;20039;-65
2022/11/23 08:27:29;;;;;;;11.65;1.48;;;;;;;;;;8337603;28;20019;-63
2022/11/23 08:31:30;;;;;;;8.18;1.63;;;;;;;;;;8339562;28;20071;-62
2022/11/23 08:35:32;;;;;;;7.45;1.58;;;;;;;;;;8340907;28;20025;-63
2022/11/23 08:39:32;;;;;;;5.35;1.52;;;;;;;;;;8335130;28;20453;-62
2022/11/23 08:43:33;;;;;;;9.43;1.77;;;;;;;;;;8336976;28;20031;-62
2022/11/23 08:47:33;;;;;;;5.90;1.80;;;;;;;;;;8334657;28;20127;-62
2022/11/23 08:51:34;;;;;;;12.40;2.03;;;;;;;;;;8336321;28;20064;-62
2022/11/23 08:55:34;;;;;;;6.00;1.73;;;;;;;;;;8335511;28;20287;-63
2022/11/23 08:59:34;;;;;;;10.82;1.92;;;;;;;;;;8342194;28;20619;-62
2022/11/23 09:03:34;;;;;;;6.78;1.77;;;;;;;;;;8340728;28;20478;-63
2022/11/23 09:07:35;;;;;;;9.05;1.85;;;;;;;;;;8341926;28;20819;-62
2022/11/23 09:11:35;;;;;;;7.97;1.85;;;;;;;;;;8342221;28;20028;-63
2022/11/23 09:15:35;;;;;;;8.45;2.40;;;;;;;;;;8341051;28;20095;-62
2022/11/23 09:19:35;;;;;;;6.82;1.60;;;;;;;;;;8342843;28;20082;-62
2022/11/23 09:23:35;;;;;;;6.18;1.55;;;;;;;;;;8341362;28;20206;-62
2022/11/23 09:27:36;;;;;;;8.05;1.60;;;;;;;;;;8340018;28;20782;-62
2022/11/23 09:31:36;;;;;;;7.22;1.60;;;;;;;;;;8339198;28;20071;-62
2022/11/23 09:35:36;;;;;;;3.87;1.30;;;;;;;;;;8338043;28;20029;-62
2022/11/23 09:39:36;;;;;;;6.05;1.33;;;;;;;;;;8339356;28;20310;-62
2022/11/23 09:43:36;;;;;;;6.78;1.30;;;;;;;;;;8340615;28;20052;-62
2022/11/23 09:47:52;;;;;;;5.72;1.33;;;;;;;;;;8343902;28;20040;-62
2022/11/23 09:51:54;;;;;;;6.68;1.60;;;;;;;;;;8341457;28;20050;-62
2022/11/23 09:55:55;;;;;;;8.52;1.40;;;;;;;;;;8343065;28;20588;-62
2022/11/23 10:00:00;;;;;;;6.00;1.60;;;;;;;;;;8341847;28;20460;-62
2022/11/23 10:04:02;;;;;;;8.25;1.63;;;;;;;;;;8341599;28;20036;-62
2022/11/23 10:08:15;;;;;;;7.30;1.30;;;;;;;;;;8341643;28;20020;-62
2022/11/23 10:12:44;;;;;;;6.50;1.38;;;;;;;;;;8342249;28;20106;-63
2022/11/23 10:16:47;;;;;;;6.70;1.40;;;;;;;;;;8331034;28;20053;-62
2022/11/23 10:20:57;;;;;;;10.02;1.80;;;;;;;;;;8331214;28;20090;-62
2022/11/23 10:24:59;;;;;;;6.55;1.40;;;;;;;;;;8338772;28;20127;-63
2022/11/23 10:29:12;;;;;;;5.82;1.45;;;;;;;;;;8341375;28;20051;-63
2022/11/23 10:33:12;;;;;;;3.28;1.23;;;;;;;;;;8340548;28;20055;-62
2022/11/23 10:37:13;;;;;;;3.72;1.10;;;;;;;;;;8339588;28;20465;-62
2022/11/23 10:41:15;;;;;;;4.47;1.10;;;;;;;;;;8339761;28;20136;-63
2022/11/23 10:45:21;;;;;;;6.63;1.63;;;;;;;;;;8339622;28;20143;-63
2022/11/23 10:49:22;;;;;;;4.28;1.05;;;;;;;;;;8343009;28;20021;-62
2022/11/23 10:53:25;;;;;;;3.85;1.17;;;;;;;;;;8340194;28;20025;-63
2022/11/23 10:57:33;;;;;;;2.70;0.95;;;;;;;;;;8340704;28;20124;-63
2022/11/23 11:01:33;;;;;;;4.57;1.35;;;;;;;;;;8341619;28;20382;-62
2022/11/23 11:05:36;;;;;;;6.40;1.20;;;;;;;;;;8340190;28;20116;-62
2022/11/23 11:09:37;;;;;;;6.57;1.35;;;;;;;;;;8339384;28;20540;-62
2022/11/23 11:13:47;;;;;;;4.38;1.13;;;;;;;;;;8338730;28;20043;-61
2022/11/23 11:17:53;;;;;;;6.85;1.20;;;;;;;;;;8339276;28;20890;-62
2022/11/23 11:21:54;;;;;;;3.63;1.10;;;;;;;;;;8336861;28;20564;-62
2022/11/23 11:26:05;;;;;;;6.43;1.10;;;;;;;;;;8339330;28;20743;-62
2022/11/23 11:30:19;;;;;;;7.97;1.30;;;;;;;;;;8338646;28;20798;-62
2022/11/23 11:34:22;;;;;;;5.38;0.85;;;;;;;;;;8339046;28;20044;-61
2022/11/23 11:38:31;;;;;;;9.82;1.40;;;;;;;;;;8340302;28;20072;-61
2022/11/23 11:42:43;;;;;;;4.82;1.70;;;;;;;;;;8338334;28;20020;-62
2022/11/23 11:46:46;;;;;;;6.88;1.35;;;;;;;;;;8338331;28;20032;-61
2022/11/23 11:50:49;;;;;;;4.95;1.45;;;;;;;;;;8338376;28;20029;-62
2022/11/23 11:54:50;;;;;;;8.83;1.63;;;;;;;;;;8340517;28;20098;-62
2022/11/23 11:58:55;;;;;;;5.93;1.50;;;;;;;;;;8337695;28;20028;-61
2022/11/23 12:03:01;;;;;;;5.68;1.58;;;;;;;;;;8338507;28;20091;-64
2022/11/23 12:07:07;;;;;;;6.82;1.75;;;;;;;;;;8339435;28;20056;-62
2022/11/23 12:11:09;;;;;;;5.82;1.60;;;;;;;;;;8340465;28;20024;-61
2022/11/23 12:15:16;;;;;;;4.00;1.30;;;;;;;;;;8322601;28;20028;-61
2022/11/23 12:19:22;;;;;;;5.40;1.30;;;;;;;;;;8338773;28;20065;-61
2022/11/23 12:23:41;;;;;;;7.18;1.90;;;;;;;;;;8337110;28;20664;-62
2022/11/23 12:27:41;;;;;;;7.43;1.70;;;;;;;;;;8336331;28;20090;-62
2022/11/23 12:31:43;;;;;;;5.53;1.20;;;;;;;;;;8339504;28;20044;-62
2022/11/23 12:35:59;;;;;;;5.35;1.45;;;;;;;;;;8337823;28;20062;-61
2022/11/23 12:40:06;;;;;;;9.27;3.00;;;;;;;;;;8339122;28;20021;-60
2022/11/23 12:44:12;;;;;;;6.43;1.90;;;;;;;;;;8337496;28;20466;-61
2022/11/23 12:48:31;;;;;;;3.83;1.20;;;;;;;;;;8338051;28;20055;-62
2022/11/23 12:52:34;;;;;;;9.63;1.90;;;;;;;;;;8339404;28;20017;-61
2022/11/23 12:56:53;;;;;;;6.32;1.73;;;;;;;;;;8336988;28;20044;-61
2022/11/23 13:00:53;;;;;;;4.57;1.33;;;;;;;;;;8334530;28;20153;-62
2022/11/23 13:05:00;;;;;;;8.17;1.60;;;;;;;;;;8337700;28;20059;-63
2022/11/23 13:09:06;;;;;;;6.15;1.30;;;;;;;;;;8337497;28;20054;-62
2022/11/23 13:13:06;;;;;;;6.65;1.92;;;;;;;;;;8335668;28;20976;-62
2022/11/23 13:17:06;;;;;;;15.77;4.35;;;;;;;;;;8334029;28;20090;-62
2022/11/23 13:21:22;;;;;;;7.47;1.83;;;;;;;;;;8334748;28;20013;-62
2022/11/23 13:25:23;;;;;;;4.70;1.23;;;;;;;;;;8335053;28;20021;-67
2022/11/23 13:29:42;;;;;;;8.52;3.22;;;;;;;;;;8332723;28;20561;-64
2022/11/23 13:33:45;;;;;;;7.10;2.20;;;;;;;;;;8334247;28;20045;-62
2022/11/23 13:37:59;;;;;;;5.38;1.52;;;;;;;;;;8333723;28;20499;-62
2022/11/23 13:42:00;;;;;;;4.68;1.67;;;;;;;;;;8335258;28;20723;-62
2022/11/23 13:46:20;;;;;;;5.82;1.42;;;;;;;;;;8340253;28;20370;-63
2022/11/23 13:50:20;;;;;;;4.95;1.33;;;;;;;;;;8341472;28;20094;-62
2022/11/23 13:54:21;;;;;;;8.32;2.70;;;;;;;;;;8340517;28;20029;-63
2022/11/23 13:58:25;;;;;;;5.82;1.83;;;;;;;;;;8338510;28;20029;-61
2022/11/23 14:02:28;;;;;;;4.65;1.45;;;;;;;;;;8340468;28;20025;-61
2022/11/23 14:06:31;;;;;;;3.92;1.33;;;;;;;;;;8339408;28;20070;-62
2022/11/23 14:10:32;;;;;;;5.17;1.30;;;;;;;;;;8339723;28;20029;-63
2022/11/23 14:14:52;;;;;;;5.97;1.50;;;;;;;;;;8337735;28;20093;-62
2022/11/23 14:19:18;;;;;;;5.18;1.70;;;;;;;;;;8327515;28;20143;-62
2022/11/23 14:23:18;;;;;;;4.13;1.50;;;;;;;;;;8338482;28;20029;-62
2022/11/23 14:27:27;;;;;;;5.35;1.98;;;;;;;;;;8336867;28;20039;-63
2022/11/23 14:31:27;;;;;;;7.78;2.53;;;;;;;;;;8338371;28;20110;-62
2022/11/23 14:35:32;;;;;;;8.20;2.40;;;;;;;;;;8335510;28;20147;-62
2022/11/23 14:39:50;;;;;;;9.48;1.73;;;;;;;;;;8338572;28;20016;-63
2022/11/23 14:43:52;;;;;;;4.25;1.90;;;;;;;;;;8338560;28;21053;-63
2022/11/23 14:47:52;;;;;;;5.97;1.80;;;;;;;;;;8338143;28;20041;-63
2022/11/23 14:51:52;;;;;;;5.78;1.67;;;;;;;;;;8336417;28;20032;-62
2022/11/23 14:55:53;;;;;;;4.20;1.60;;;;;;;;;;8336612;28;20032;-63
2022/11/23 14:59:56;;;;;;;4.32;1.48;;;;;;;;;;8338621;28;20016;-63
2022/11/23 15:03:58;;;;;;;5.05;1.98;;;;;;;;;;8337319;28;20117;-61
2022/11/23 15:08:03;;;;;;;7.32;2.80;;;;;;;;;;8338870;28;20137;-63
2022/11/23 15:12:24;;;;;;;3.67;2.22;;;;;;;;;;8335489;28;20748;-62
2022/11/23 15:16:24;;;;;;;32.38;14.75;;;;;;;;;;8330884;28;20047;-62
2022/11/23 15:20:32;;;;;;;16.25;9.10;;;;;;;;;;8336896;28;20029;-62
2022/11/23 15:24:33;;;;;;;12.13;7.28;;;;;;;;;;8336483;28;20055;-62
2022/11/23 15:28:35;;;;;;;22.37;11.00;;;;;;;;;;8337913;28;20024;-62
2022/11/23 15:32:35;;;;;;;15.27;7.47;;;;;;;;;;8335300;28;20301;-62
2022/11/23 15:36:37;;;;;;;17.77;6.80;;;;;;;;;;8334164;28;20029;-62
2022/11/23 15:40:39;;;;;;;10.63;5.20;;;;;;;;;;8338815;28;20267;-62
2022/11/23 15:44:40;;;;;;;27.40;12.88;;;;;;;;;;8338361;28;20032;-62
2022/11/23 15:48:40;;;;;;;26.45;9.77;;;;;;;;;;8338950;28;20037;-63
2022/11/23 15:52:41;;;;;;;34.72;14.02;;;;;;;;;;8339486;28;20143;-62
2022/11/23 15:56:44;;;;;;;31.73;11.90;;;;;;;;;;8339993;28;20025;-62
2022/11/23 16:00:55;;;;;;;26.25;10.98;;;;;;;;;;8336781;28;20493;-62
2022/11/23 16:05:10;;;;;;;30.05;11.90;;;;;;;;;;8308548;28;20048;-62
2022/11/23 16:09:29;;;;;;;11.45;5.22;;;;;;;;;;8337783;28;20117;-62
2022/11/23 16:13:33;;;;;;;7.07;3.35;;;;;;;;;;8341383;28;20029;-63
2022/11/23 16:17:34;;;;;;;6.13;1.83;;;;;;;;;;8335995;28;20163;-62
2022/11/23 16:21:34;;;;;;;9.55;5.15;;;;;;;;;;8335431;28;20767;-61
2022/11/23 16:25:35;;;;;;;7.53;3.78;;;;;;;;;;8336593;28;20056;-62
2022/11/23 16:29:35;;;;;;;10.77;6.63;;;;;;;;;;8335675;28;20028;-62
2022/11/23 16:33:36;;;;;;;6.00;3.05;;;;;;;;;;8334527;28;20032;-62
2022/11/23 16:37:36;;;;;;;5.25;2.58;;;;;;;;;;8336648;28;20083;-63
2022/11/23 16:41:36;;;;;;;4.70;2.50;;;;;;;;;;8334462;28;20308;-62
2022/11/23 16:45:41;;;;;;;4.80;1.05;;;;;;;;;;8336180;28;20060;-62
2022/11/23 16:49:41;;;;;;;5.05;1.15;;;;;;;;;;8332606;28;20021;-62
2022/11/23 16:53:45;;;;;;;2.47;1.20;;;;;;;;;;8337842;28;20104;-63
2022/11/23 16:57:45;;;;;;;2.97;1.00;;;;;;;;;;8335154;28;20372;-62
2022/11/23 17:01:47;;;;;;;2.95;1.83;;;;;;;;;;8334163;28;20064;-64
2022/11/23 17:05:48;;;;;;;2.05;0.90;;;;;;;;;;8333207;28;20720;-62
2022/11/23 17:09:48;;;;;;;3.55;1.70;;;;;;;;;;8333034;28;20471;-62
2022/11/23 17:13:50;;;;;;;8.52;3.33;;;;;;;;;;8335216;28;20052;-63
2022/11/23 17:17:50;;;;;;;11.82;4.78;;;;;;;;;;8334330;28;20082;-63
2022/11/23 17:21:50;;;;;;;10.65;5.55;;;;;;;;;;8339199;28;20028;-63
2022/11/23 17:25:50;;;;;;;10.37;5.50;;;;;;;;;;8341468;28;20021;-67
2022/11/23 17:29:56;;;;;;;13.10;7.13;;;;;;;;;;8340436;28;20309;-63
2022/11/23 17:33:56;;;;;;;9.15;4.95;;;;;;;;;;8338507;28;20119;-63
2022/11/23 17:37:56;;;;;;;4.93;3.22;;;;;;;;;;8337709;28;20423;-62
2022/11/23 17:41:57;;;;;;;10.67;6.80;;;;;;;;;;8341991;28;20024;-63
2022/11/23 17:45:57;;;;;;;6.47;3.70;;;;;;;;;;8339386;28;20267;-64
2022/11/23 17:49:57;;;;;;;5.70;3.10;;;;;;;;;;8341067;28;20017;-63
2022/11/23 17:53:57;;;;;;;5.80;4.00;;;;;;;;;;8342560;28;20024;-64
2022/11/23 17:57:58;;;;;;;8.70;3.80;;;;;;;;;;8339697;28;20029;-63
2022/11/23 18:01:58;;;;;;;12.60;7.95;;;;;;;;;;8335468;28;20091;-63
2022/11/23 18:05:58;;;;;;;8.88;5.35;;;;;;;;;;8336729;28;20028;-63
2022/11/23 18:09:58;;;;;;;11.98;4.40;;;;;;;;;;8337177;28;20028;-63
2022/11/23 18:13:59;;;;;;;7.18;3.42;;;;;;;;;;8334639;28;20078;-63
2022/11/23 18:17:59;;;;;;;7.68;3.50;;;;;;;;;;8329852;28;20091;-63
2022/11/23 18:21:59;;;;;;;5.50;3.00;;;;;;;;;;8333538;28;20375;-63
2022/11/23 18:26:04;;;;;;;4.28;2.10;;;;;;;;;;8331918;28;20369;-63
2022/11/23 18:30:04;;;;;;;4.90;1.50;;;;;;;;;;8332998;28;20032;-63
2022/11/23 18:34:04;;;;;;;4.65;1.60;;;;;;;;;;8334272;28;20036;-63
2022/11/23 18:38:05;;;;;;;2.45;1.35;;;;;;;;;;8334314;28;20056;-64
2022/11/23 18:42:05;;;;;;;2.83;1.42;;;;;;;;;;8330546;28;20135;-64
2022/11/23 18:46:06;;;;;;;1.95;1.20;;;;;;;;;;8332935;28;20029;-63
2022/11/23 18:50:07;;;;;;;1.88;1.30;;;;;;;;;;8332871;28;20741;-63
2022/11/23 18:54:07;;;;;;;3.63;1.38;;;;;;;;;;8332543;28;20661;-65
2022/11/23 18:58:07;;;;;;;7.82;1.70;;;;;;;;;;8334149;28;20029;-63
2022/11/23 19:02:08;;;;;;;5.53;1.53;;;;;;;;;;8330531;28;20062;-63
2022/11/23 19:06:12;;;;;;;4.75;1.67;;;;;;;;;;8312280;28;20278;-64
2022/11/23 19:10:13;;;;;;;1.63;1.42;;;;;;;;;;8328654;28;20068;-63
2022/11/23 19:14:13;;;;;;;3.30;2.00;;;;;;;;;;8330081;28;20057;-63
2022/11/23 19:18:13;;;;;;;3.45;1.60;;;;;;;;;;8330486;28;20029;-63
2022/11/23 19:22:13;;;;;;;1.88;1.50;;;;;;;;;;8329419;28;20025;-64
2022/11/23 19:26:13;;;;;;;2.78;1.60;;;;;;;;;;8329802;28;20804;-63
2022/11/23 19:30:14;;;;;;;3.33;1.75;;;;;;;;;;8330247;28;20047;-64
2022/11/23 19:34:20;;;;;;;1.83;1.48;;;;;;;;;;8329552;28;20221;-61
2022/11/23 19:38:20;;;;;;;4.15;1.95;;;;;;;;;;8331111;28;20623;-62
2022/11/23 19:42:21;;;;;;;4.63;1.88;;;;;;;;;;8332380;28;20021;-61
2022/11/23 19:46:21;;;;;;;2.92;1.80;;;;;;;;;;8332208;28;20132;-62
2022/11/23 19:50:22;;;;;;;2.83;1.75;;;;;;;;;;8331312;28;20090;-61
2022/11/23 19:54:22;;;;;;;4.70;1.90;;;;;;;;;;8330347;28;20152;-60
2022/11/23 19:58:22;;;;;;;3.35;1.65;;;;;;;;;;8328516;28;20060;-61
2022/11/23 20:02:23;;;;;;;7.35;1.90;;;;;;;;;;8328717;28;20063;-62
2022/11/23 20:06:25;;;;;;;6.25;2.25;;;;;;;;;;8333553;28;20028;-61
2022/11/23 20:10:26;;;;;;;3.20;1.80;;;;;;;;;;8335268;28;20282;-62
2022/11/23 20:14:26;;;;;;;8.32;1.92;;;;;;;;;;8333342;28;20052;-62
2022/11/23 20:18:26;;;;;;;5.25;1.90;;;;;;;;;;8333755;28;20040;-63
2022/11/23 20:22:26;;;;;;;5.30;1.58;;;;;;;;;;8333250;28;20016;-62
2022/11/23 20:26:27;;;;;;;5.38;1.50;;;;;;;;;;8336627;28;20025;-62
2022/11/23 20:30:27;;;;;;;6.43;1.88;;;;;;;;;;8333034;28;20040;-63
2022/11/23 20:34:28;;;;;;;5.30;1.67;;;;;;;;;;8333193;28;20028;-62
2022/11/23 20:38:28;;;;;;;9.35;2.10;;;;;;;;;;8335216;28;20129;-62
2022/11/23 20:42:28;;;;;;;8.63;1.85;;;;;;;;;;8332330;28;20021;-63
2022/11/23 20:46:29;;;;;;;6.77;2.00;;;;;;;;;;8334337;28;20488;-63
2022/11/23 20:50:30;;;;;;;7.18;1.92;;;;;;;;;;8336225;28;20286;-63
2022/11/23 20:54:30;;;;;;;10.43;2.25;;;;;;;;;;8340873;28;20108;-62
2022/11/23 20:58:30;;;;;;;5.65;1.80;;;;;;;;;;8341123;28;20695;-62
2022/11/23 21:02:31;;;;;;;6.30;1.70;;;;;;;;;;8344076;28;20040;-62
2022/11/23 21:06:31;;;;;;;13.27;2.17;;;;;;;;;;8342113;28;20029;-63
2022/11/23 21:14:50;;;;;;;10.35;2.20;;;;;;;;;;8341486;28;20124;-63
2022/11/23 21:18:50;;;;;;;14.38;1.90;;;;;;;;;;8343256;28;20021;-62
2022/11/23 21:22:50;;;;;;;12.68;1.98;;;;;;;;;;8341375;28;20031;-63
2022/11/23 21:26:51;;;;;;;13.30;2.50;;;;;;;;;;8344678;28;20132;-63
2022/11/23 21:30:51;;;;;;;13.05;2.00;;;;;;;;;;8342442;28;20032;-68
2022/11/23 21:34:51;;;;;;;14.90;2.60;;;;;;;;;;8340023;28;20055;-63
2022/11/23 21:38:51;;;;;;;10.38;2.30;;;;;;;;;;8343527;28;20140;-63
2022/11/23 21:42:52;;;;;;;9.93;2.50;;;;;;;;;;8341428;28;20020;-63
2022/11/23 21:46:52;;;;;;;14.52;2.22;;;;;;;;;;8341317;28;20033;-62
2022/11/23 21:50:58;;;;;;;12.05;2.65;;;;;;;;;;8342292;28;20032;-63
2022/11/23 21:54:58;;;;;;;18.15;2.95;;;;;;;;;;8340913;28;20397;-63
2022/11/23 21:58:59;;;;;;;16.35;2.22;;;;;;;;;;8342277;28;20023;-63
2022/11/23 22:02:59;;;;;;;16.92;2.60;;;;;;;;;;8340477;28;20119;-63
2022/11/23 22:06:59;;;;;;;19.80;2.83;;;;;;;;;;8342584;28;20078;-63
2022/11/23 22:11:07;;;;;;;15.93;2.90;;;;;;;;;;8342804;28;20025;-62
2022/11/23 22:15:09;;;;;;;9.25;2.75;;;;;;;;;;8340000;28;20282;-62
2022/11/23 22:19:10;;;;;;;11.65;2.70;;;;;;;;;;8341408;28;20029;-62
2022/11/23 22:23:11;;;;;;;12.07;2.65;;;;;;;;;;8341482;28;20120;-62
2022/11/23 22:27:11;;;;;;;25.08;3.80;;;;;;;;;;8341568;28;20900;-63
2022/11/23 22:31:12;;;;;;;19.77;3.43;;;;;;;;;;8340231;28;20040;-62
2022/11/23 22:35:12;;;;;;;21.35;3.17;;;;;;;;;;8338743;28;20279;-63
2022/11/23 22:39:13;;;;;;;16.83;3.10;;;;;;;;;;8341267;28;20017;-63
2022/11/23 22:43:13;;;;;;;16.83;2.78;;;;;;;;;;8340942;28;20275;-63
2022/11/23 22:47:13;;;;;;;20.00;2.70;;;;;;;;;;8339638;28;20494;-63
2022/11/23 22:51:15;;;;;;;8.63;2.40;;;;;;;;;;8340961;28;20636;-63
2022/11/23 22:55:15;;;;;;;12.40;2.53;;;;;;;;;;8339588;28;20016;-62
2022/11/23 22:59:16;;;;;;;15.70;2.57;;;;;;;;;;8339638;28;20029;-62
2022/11/23 23:03:16;;;;;;;17.73;2.50;;;;;;;;;;8339126;28;20267;-63
2022/11/23 23:07:16;;;;;;;17.90;3.38;;;;;;;;;;8340499;28;20324;-62
2022/11/23 23:11:16;;;;;;;16.40;2.90;;;;;;;;;;8341376;28;20012;-63
2022/11/23 23:15:17;;;;;;;18.85;2.85;;;;;;;;;;8339900;28;20020;-68
2022/11/23 23:19:17;;;;;;;16.55;2.70;;;;;;;;;;8337477;28;20404;-63
2022/11/23 23:23:17;;;;;;;10.50;2.97;;;;;;;;;;8338992;28;20526;-62
2022/11/23 23:27:18;;;;;;;16.05;3.58;;;;;;;;;;8339184;28;20032;-63
2022/11/23 23:31:18;;;;;;;20.25;3.30;;;;;;;;;;8336562;28;20045;-62
2022/11/23 23:35:18;;;;;;;15.05;3.00;;;;;;;;;;8335707;28;20024;-62
2022/11/23 23:39:18;;;;;;;15.63;2.87;;;;;;;;;;8335524;28;20013;-63
2022/11/23 23:43:20;;;;;;;16.58;3.08;;;;;;;;;;8337558;28;20271;-64
2022/11/23 23:47:20;;;;;;;19.75;3.20;;;;;;;;;;8337116;28;20035;-63
2022/11/23 23:51:23;;;;;;;14.40;2.70;;;;;;;;;;8334042;28;20017;-63
2022/11/23 23:55:23;;;;;;;14.75;2.78;;;;;;;;;;8335468;28;20028;-64
2022/11/23 23:59:24;;;;;;;16.95;3.72;;;;;;;;;;8334493;28;20023;-63
